Time;durP1;ratioP1;P1;durP2;ratioP2;P2;SDS_P1;SDS_P2;PMS_P1;PMS_P2;Temp;Humidity;BMP_temperature;BMP_pressure;BME280_temperature;BME280_humidity;BME280_pressure;Samples;Min_cycle;Max_cycle;Signal;HPM_P1;HPM_P2
2022/05/22 00:01:23;;;;;;;13.25;3.25;;;;;;;;;;5043908;28;20056;-80
2022/05/22 00:03:48;;;;;;;7.25;3.08;;;;;;;;;;5059691;28;20048;-80
2022/05/22 00:06:14;;;;;;;9.13;3.60;;;;;;;;;;5059657;28;20032;-80
2022/05/22 00:08:39;;;;;;;8.90;3.45;;;;;;;;;;5095010;28;20034;-80
2022/05/22 00:11:05;;;;;;;10.82;2.95;;;;;;;;;;5094532;28;20529;-81
2022/05/22 00:13:30;;;;;;;8.98;3.08;;;;;;;;;;5076245;28;20046;-81
2022/05/22 00:18:40;;;;;;;7.13;3.30;;;;;;;;;;5094514;28;20039;-80
2022/05/22 00:21:05;;;;;;;7.68;3.13;;;;;;;;;;5094628;28;20518;-80
2022/05/22 00:23:33;;;;;;;7.30;3.00;;;;;;;;;;5076162;28;20053;-79
2022/05/22 00:25:59;;;;;;;7.28;3.17;;;;;;;;;;5094068;28;20030;-80
2022/05/22 00:28:24;;;;;;;10.32;3.47;;;;;;;;;;5075957;28;20036;-80
2022/05/22 00:30:50;;;;;;;10.00;3.53;;;;;;;;;;5094283;28;20084;-81
2022/05/22 00:33:16;;;;;;;8.43;3.22;;;;;;;;;;5094007;28;20036;-79
2022/05/22 00:35:41;;;;;;;11.85;4.90;;;;;;;;;;5076042;28;20050;-79
2022/05/22 00:38:07;;;;;;;10.75;3.50;;;;;;;;;;5076122;28;20063;-79
2022/05/22 00:40:32;;;;;;;13.80;3.88;;;;;;;;;;5075731;28;20096;-80
2022/05/22 00:42:58;;;;;;;6.63;2.88;;;;;;;;;;5093526;28;20024;-78
2022/05/22 00:45:23;;;;;;;9.18;3.50;;;;;;;;;;5093923;28;20024;-79
2022/05/22 00:47:54;;;;;;;9.35;3.42;;;;;;;;;;5076009;28;20078;-79
2022/05/22 00:50:21;;;;;;;8.32;3.20;;;;;;;;;;5059243;28;20073;-79
2022/05/22 00:52:57;;;;;;;9.90;3.53;;;;;;;;;;5093516;28;20031;-79
2022/05/22 00:55:28;;;;;;;7.80;3.22;;;;;;;;;;5059081;28;20483;-79
2022/05/22 00:58:04;;;;;;;6.80;3.33;;;;;;;;;;5075937;28;20032;-81
2022/05/22 01:00:35;;;;;;;10.98;3.40;;;;;;;;;;5059218;28;20040;-79
2022/05/22 01:05:49;;;;;;;11.23;3.50;;;;;;;;;;5060121;28;20032;-79
2022/05/22 01:08:14;;;;;;;11.60;3.38;;;;;;;;;;5076063;28;20035;-80
2022/05/22 01:10:42;;;;;;;12.88;3.85;;;;;;;;;;5058939;28;20497;-80
2022/05/22 01:13:08;;;;;;;10.75;3.63;;;;;;;;;;5075504;28;20032;-80
2022/05/22 01:15:34;;;;;;;13.13;3.97;;;;;;;;;;5058635;28;20289;-79
2022/05/22 01:18:00;;;;;;;8.95;3.40;;;;;;;;;;5093377;28;20494;-79
2022/05/22 01:20:25;;;;;;;11.60;3.97;;;;;;;;;;5093287;28;20119;-81
2022/05/22 01:22:51;;;;;;;11.00;3.90;;;;;;;;;;5076880;28;20024;-80
2022/05/22 01:25:16;;;;;;;11.15;3.97;;;;;;;;;;5080920;28;20115;-78
2022/05/22 01:27:50;;;;;;;10.20;3.83;;;;;;;;;;5065901;28;20032;-81
2022/05/22 01:30:28;;;;;;;6.65;3.05;;;;;;;;;;5091071;28;20044;-76
2022/05/22 01:33:00;;;;;;;11.13;3.80;;;;;;;;;;5094020;28;20032;-76
2022/05/22 01:35:27;;;;;;;7.68;3.83;;;;;;;;;;5112049;28;20088;-77
2022/05/22 01:37:53;;;;;;;9.55;4.20;;;;;;;;;;5105514;28;20016;-76
2022/05/22 01:40:20;;;;;;;11.40;3.80;;;;;;;;;;5108478;28;20028;-76
2022/05/22 01:42:49;;;;;;;9.57;3.78;;;;;;;;;;5082118;28;20047;-76
2022/05/22 01:45:17;;;;;;;9.63;3.85;;;;;;;;;;5114125;28;20027;-75
2022/05/22 01:47:43;;;;;;;8.25;3.33;;;;;;;;;;5082159;28;20016;-76
2022/05/22 01:50:09;;;;;;;10.15;3.90;;;;;;;;;;5102139;28;20040;-75
2022/05/22 01:52:36;;;;;;;12.70;3.95;;;;;;;;;;5098833;28;20038;-77
2022/05/22 01:55:02;;;;;;;11.95;5.03;;;;;;;;;;5094319;28;20067;-76
2022/05/22 01:57:30;;;;;;;9.60;3.45;;;;;;;;;;5078335;28;20036;-74
2022/05/22 01:59:58;;;;;;;11.05;3.75;;;;;;;;;;5098798;28;20036;-77
2022/05/22 02:02:25;;;;;;;10.70;3.50;;;;;;;;;;5094029;28;20040;-76
2022/05/22 02:04:53;;;;;;;9.38;3.63;;;;;;;;;;5076992;28;20031;-76
2022/05/22 02:10:08;;;;;;;9.57;3.40;;;;;;;;;;5107648;28;20005;-75
2022/05/22 02:12:34;;;;;;;7.05;3.50;;;;;;;;;;5105794;28;20047;-75
2022/05/22 02:15:02;;;;;;;;;;;;;;;;;;5076355;28;20032;-77
2022/05/22 02:17:27;;;;;;;9.45;4.10;;;;;;;;;;5082617;28;20092;-77
2022/05/22 02:19:54;;;;;;;10.27;3.67;;;;;;;;;;5092327;28;20039;-76
2022/05/22 02:22:43;;;;;;;10.70;4.28;;;;;;;;;;5099550;28;20060;-76
2022/05/22 02:25:10;;;;;;;11.75;4.13;;;;;;;;;;5111421;28;20035;-76
2022/05/22 02:27:37;;;;;;;13.18;5.72;;;;;;;;;;5079730;28;20032;-75
2022/05/22 02:30:04;;;;;;;11.30;4.25;;;;;;;;;;5091189;28;20021;-76
2022/05/22 02:32:30;;;;;;;9.15;4.00;;;;;;;;;;5092546;28;20131;-77
2022/05/22 02:34:55;;;;;;;8.52;3.65;;;;;;;;;;5095812;28;20054;-76
2022/05/22 02:37:21;;;;;;;9.80;3.63;;;;;;;;;;5096600;28;20008;-76
2022/05/22 02:39:46;;;;;;;9.68;3.65;;;;;;;;;;5094135;28;20013;-77
2022/05/22 02:42:31;;;;;;;11.93;3.88;;;;;;;;;;5101957;28;20043;-75
2022/05/22 02:44:57;;;;;;;9.68;3.47;;;;;;;;;;5080399;28;20034;-75
2022/05/22 02:47:23;;;;;;;9.77;3.67;;;;;;;;;;5074979;28;20021;-74
2022/05/22 02:49:48;;;;;;;10.10;4.13;;;;;;;;;;5066247;28;20028;-74
2022/05/22 02:52:14;;;;;;;12.02;4.05;;;;;;;;;;5094549;28;20037;-77
2022/05/22 02:54:39;;;;;;;9.82;4.38;;;;;;;;;;5041703;28;20570;-76
2022/05/22 02:57:10;;;;;;;10.82;4.40;;;;;;;;;;5075212;28;20063;-74
2022/05/22 02:59:37;;;;;;;9.27;4.10;;;;;;;;;;5092100;28;20031;-75
2022/05/22 03:02:24;;;;;;;13.07;5.45;;;;;;;;;;5087203;28;20025;-75
2022/05/22 03:04:53;;;;;;;11.35;4.32;;;;;;;;;;5058080;28;20483;-76
2022/05/22 03:07:20;;;;;;;8.65;4.03;;;;;;;;;;5070992;28;20032;-76
2022/05/22 03:09:47;;;;;;;11.82;4.22;;;;;;;;;;5073671;28;20031;-75
2022/05/22 03:12:15;;;;;;;12.63;4.00;;;;;;;;;;5070398;28;20028;-76
2022/05/22 03:14:54;;;;;;;9.55;4.30;;;;;;;;;;5073681;28;20055;-76
2022/05/22 03:17:20;;;;;;;14.60;4.40;;;;;;;;;;5070340;28;20036;-75
2022/05/22 03:19:56;;;;;;;13.68;5.47;;;;;;;;;;5075233;28;20037;-77
2022/05/22 03:22:22;;;;;;;10.68;4.95;;;;;;;;;;5083222;28;20596;-77
2022/05/22 03:24:49;;;;;;;12.27;4.53;;;;;;;;;;5042141;28;20020;-77
2022/05/22 03:27:15;;;;;;;11.88;5.03;;;;;;;;;;5070090;28;20369;-76
2022/05/22 03:29:42;;;;;;;14.57;6.88;;;;;;;;;;5045446;28;20137;-77
2022/05/22 03:32:08;;;;;;;10.88;5.75;;;;;;;;;;5056090;28;20068;-76
2022/05/22 03:34:35;;;;;;;13.20;6.20;;;;;;;;;;5043003;28;20124;-77
2022/05/22 03:37:01;;;;;;;12.75;5.50;;;;;;;;;;5036766;28;20124;-76
2022/05/22 03:39:27;;;;;;;17.73;6.22;;;;;;;;;;5039588;28;20028;-77
2022/05/22 03:41:53;;;;;;;12.98;6.10;;;;;;;;;;5048005;28;20087;-77
2022/05/22 03:44:21;;;;;;;11.05;6.00;;;;;;;;;;5049320;28;20510;-77
2022/05/22 03:46:48;;;;;;;9.43;5.45;;;;;;;;;;5073600;28;20036;-76
2022/05/22 03:49:15;;;;;;;17.02;6.18;;;;;;;;;;5055650;28;20032;-77
2022/05/22 03:51:41;;;;;;;11.60;5.28;;;;;;;;;;5055621;28;20047;-78
2022/05/22 03:54:11;;;;;;;11.23;4.90;;;;;;;;;;5055478;28;20036;-74
2022/05/22 03:56:41;;;;;;;12.65;5.65;;;;;;;;;;5055873;28;20028;-74
2022/05/22 03:59:11;;;;;;;9.93;5.47;;;;;;;;;;5055543;28;20110;-77
2022/05/22 04:01:37;;;;;;;14.60;5.65;;;;;;;;;;5067866;28;20480;-77
2022/05/22 04:04:03;;;;;;;10.38;5.45;;;;;;;;;;5061189;28;20027;-75
2022/05/22 04:06:28;;;;;;;12.15;5.63;;;;;;;;;;5059910;28;20029;-75
2022/05/22 04:08:54;;;;;;;8.15;4.75;;;;;;;;;;5051524;28;20104;-77
2022/05/22 04:11:38;;;;;;;13.25;5.30;;;;;;;;;;5035760;28;20033;-77
2022/05/22 04:14:04;;;;;;;10.38;4.45;;;;;;;;;;5044571;28;20028;-75
2022/05/22 04:16:30;;;;;;;11.63;5.22;;;;;;;;;;5055205;28;20028;-76
2022/05/22 04:18:55;;;;;;;6.70;4.00;;;;;;;;;;5022599;28;20084;-76
2022/05/22 04:21:20;;;;;;;11.88;4.25;;;;;;;;;;5051949;28;20369;-77
2022/05/22 04:26:37;;;;;;;9.23;3.97;;;;;;;;;;5041381;28;20040;-77
2022/05/22 04:29:06;;;;;;;;;;;;;;;;;;5016401;28;1016274;-75
2022/05/22 04:31:32;;;;;;;11.00;3.97;;;;;;;;;;5068363;28;20424;-76
2022/05/22 04:34:09;;;;;;;8.27;3.35;;;;;;;;;;5062872;28;20507;-77
2022/05/22 04:36:36;;;;;;;8.98;3.78;;;;;;;;;;5073749;28;20024;-75
2022/05/22 04:39:02;;;;;;;10.52;3.45;;;;;;;;;;5056259;28;20484;-74
2022/05/22 04:41:28;;;;;;;9.23;3.30;;;;;;;;;;5067330;28;20071;-76
2022/05/22 04:43:53;;;;;;;7.88;3.15;;;;;;;;;;5062201;28;20391;-75
2022/05/22 04:46:19;;;;;;;10.23;3.70;;;;;;;;;;5078178;28;20498;-75
2022/05/22 04:48:44;;;;;;;9.63;3.10;;;;;;;;;;5034096;28;20032;-75
2022/05/22 04:51:11;;;;;;;7.43;3.30;;;;;;;;;;5039541;28;20091;-76
2022/05/22 04:53:49;;;;;;;7.53;3.03;;;;;;;;;;5057196;28;20032;-76
2022/05/22 04:56:24;;;;;;;10.52;3.33;;;;;;;;;;5061802;28;20044;-76
2022/05/22 04:58:54;;;;;;;6.93;2.47;;;;;;;;;;5068516;28;20035;-76
2022/05/22 05:01:21;;;;;;;7.97;2.85;;;;;;;;;;5072582;28;20024;-76
2022/05/22 05:03:54;;;;;;;6.93;2.60;;;;;;;;;;5072456;28;20068;-76
2022/05/22 05:06:20;;;;;;;9.70;2.60;;;;;;;;;;5072382;28;20048;-76
2022/05/22 05:08:47;;;;;;;8.25;2.88;;;;;;;;;;5077398;28;20033;-76
2022/05/22 05:11:25;;;;;;;5.68;2.45;;;;;;;;;;5056548;28;20051;-74
2022/05/22 05:13:56;;;;;;;6.57;2.55;;;;;;;;;;5080796;28;20060;-74
2022/05/22 05:16:22;;;;;;;8.00;2.35;;;;;;;;;;5063976;28;20020;-76
2022/05/22 05:18:57;;;;;;;7.43;2.67;;;;;;;;;;5055759;28;20029;-76
2022/05/22 05:21:22;;;;;;;9.80;2.95;;;;;;;;;;5055514;28;20483;-76
2022/05/22 05:23:52;;;;;;;6.18;2.42;;;;;;;;;;5081121;28;20029;-75
2022/05/22 05:26:20;;;;;;;10.63;2.83;;;;;;;;;;5065315;28;20094;-76
2022/05/22 05:28:47;;;;;;;8.43;2.72;;;;;;;;;;5082541;28;20043;-77
2022/05/22 05:31:21;;;;;;;7.70;2.10;;;;;;;;;;5052767;28;20052;-76
2022/05/22 05:33:47;;;;;;;6.82;2.25;;;;;;;;;;5052607;28;20543;-77
2022/05/22 05:36:22;;;;;;;6.78;2.80;;;;;;;;;;5056488;28;20036;-75
2022/05/22 05:39:11;;;;;;;8.82;2.33;;;;;;;;;;5072590;28;20138;-77
2022/05/22 05:41:44;;;;;;;7.85;2.47;;;;;;;;;;5052212;28;20040;-76
2022/05/22 05:44:09;;;;;;;5.95;2.15;;;;;;;;;;5038445;28;20032;-77
2022/05/22 05:46:49;;;;;;;10.77;3.58;;;;;;;;;;5057186;28;20402;-74
2022/05/22 05:49:15;;;;;;;5.22;2.53;;;;;;;;;;5022662;28;20036;-76
2022/05/22 05:51:44;;;;;;;7.32;2.55;;;;;;;;;;5066906;28;20027;-74
2022/05/22 05:54:10;;;;;;;6.72;2.35;;;;;;;;;;5055681;28;20600;-76
2022/05/22 05:57:01;;;;;;;7.20;2.10;;;;;;;;;;5039868;28;20515;-75
2022/05/22 05:59:34;;;;;;;5.35;2.20;;;;;;;;;;5088857;28;20035;-76
2022/05/22 06:02:10;;;;;;;11.30;2.38;;;;;;;;;;5056066;28;20032;-76
2022/05/22 06:04:35;;;;;;;6.03;2.55;;;;;;;;;;5042559;28;20032;-75
2022/05/22 06:07:02;;;;;;;7.28;2.30;;;;;;;;;;5052428;28;20024;-75
2022/05/22 06:09:27;;;;;;;7.22;1.95;;;;;;;;;;5055327;28;20502;-77
2022/05/22 06:12:12;;;;;;;5.43;1.90;;;;;;;;;;5044954;28;20029;-75
2022/05/22 06:14:48;;;;;;;5.50;1.88;;;;;;;;;;5050524;28;20040;-76
2022/05/22 06:17:14;;;;;;;4.95;2.50;;;;;;;;;;5021828;28;20033;-76
2022/05/22 06:19:55;;;;;;;;;;;;;;;;;;5082299;28;20029;-75
2022/05/22 06:22:24;;;;;;;6.97;1.77;;;;;;;;;;5029813;28;19912;-77
2022/05/22 06:24:52;;;;;;;3.53;1.10;;;;;;;;;;5038808;28;20032;-76
2022/05/22 06:27:38;;;;;;;5.85;1.75;;;;;;;;;;5054409;28;20078;-76
2022/05/22 06:30:13;;;;;;;6.97;1.70;;;;;;;;;;5083167;28;20032;-77
2022/05/22 06:33:08;;;;;;;6.65;1.80;;;;;;;;;;5083219;28;20063;-76
2022/05/22 06:35:57;;;;;;;3.70;1.30;;;;;;;;;;5080470;28;20047;-76
2022/05/22 06:41:46;;;;;;;4.10;1.40;;;;;;;;;;5074809;28;20071;-76
2022/05/22 06:44:32;;;;;;;7.72;2.10;;;;;;;;;;5067470;28;20024;-76
2022/05/22 06:47:17;;;;;;;4.55;1.27;;;;;;;;;;5076035;28;20031;-76
2022/05/22 06:50:04;;;;;;;7.82;1.52;;;;;;;;;;5087571;28;20487;-75
2022/05/22 06:52:41;;;;;;;5.85;1.52;;;;;;;;;;5059002;28;20039;-75
2022/05/22 06:55:45;;;;;;;8.10;1.60;;;;;;;;;;5060422;28;20484;-76
2022/05/22 06:58:29;;;;;;;6.68;1.45;;;;;;;;;;5078785;28;20036;-76
2022/05/22 07:01:21;;;;;;;5.53;1.50;;;;;;;;;;5060441;28;20043;-75
2022/05/22 07:04:05;;;;;;;6.22;1.55;;;;;;;;;;5075478;28;20032;-75
2022/05/22 07:06:40;;;;;;;5.57;1.55;;;;;;;;;;5081826;28;20032;-74
2022/05/22 07:09:26;;;;;;;8.15;1.23;;;;;;;;;;5051409;28;20032;-76
2022/05/22 07:12:11;;;;;;;7.78;1.50;;;;;;;;;;5075079;28;20372;-75
2022/05/22 07:15:03;;;;;;;5.15;1.48;;;;;;;;;;5077182;28;20135;-75
2022/05/22 07:17:29;;;;;;;14.50;4.15;;;;;;;;;;5075587;28;20432;-76
2022/05/22 07:20:24;;;;;;;8.85;2.00;;;;;;;;;;5024251;28;20559;-76
2022/05/22 07:23:02;;;;;;;7.03;1.20;;;;;;;;;;5078491;28;20024;-76
2022/05/22 07:25:46;;;;;;;7.00;1.45;;;;;;;;;;5089425;28;20071;-77
2022/05/22 07:28:24;;;;;;;11.75;1.83;;;;;;;;;;5084656;22;20024;-80
2022/05/22 07:31:16;;;;;;;8.85;2.03;;;;;;;;;;5032851;28;20048;-80
2022/05/22 07:34:00;;;;;;;8.77;1.77;;;;;;;;;;5076969;28;20555;-79
2022/05/22 07:36:45;;;;;;;5.95;1.77;;;;;;;;;;5062005;28;20542;-79
2022/05/22 07:39:25;;;;;;;9.55;1.92;;;;;;;;;;5013160;28;20032;-81
2022/05/22 07:42:10;;;;;;;7.13;1.73;;;;;;;;;;5036125;28;20037;-80
2022/05/22 07:44:54;;;;;;;8.50;1.50;;;;;;;;;;5049358;28;20025;-78
2022/05/22 07:47:42;;;;;;;;;;;;;;;;;;5054782;28;20075;-79
2022/05/22 07:50:21;;;;;;;8.25;1.70;;;;;;;;;;5046747;28;19916;-78
2022/05/22 07:52:59;;;;;;;9.82;1.67;;;;;;;;;;5074226;28;20502;-80
2022/05/22 07:55:45;;;;;;;4.85;1.45;;;;;;;;;;5049811;28;20123;-78
2022/05/22 07:58:29;;;;;;;7.28;2.10;;;;;;;;;;5065156;28;20079;-79
2022/05/22 08:01:15;;;;;;;8.95;2.10;;;;;;;;;;5061890;28;20130;-79
2022/05/22 08:04:00;;;;;;;8.38;1.90;;;;;;;;;;5051415;28;20083;-78
2022/05/22 08:06:49;;;;;;;7.03;1.90;;;;;;;;;;5053595;28;20033;-79
2022/05/22 08:09:33;;;;;;;5.20;1.63;;;;;;;;;;5044177;28;20472;-79
2022/05/22 08:11:58;;;;;;;9.48;2.13;;;;;;;;;;5034813;28;20120;-80
2022/05/22 08:14:24;;;;;;;7.25;1.65;;;;;;;;;;5039532;28;20111;-81
2022/05/22 08:16:55;;;;;;;8.68;2.00;;;;;;;;;;5059075;28;20024;-79
2022/05/22 08:19:21;;;;;;;8.55;1.63;;;;;;;;;;5025006;28;20440;-80
2022/05/22 08:22:04;;;;;;;8.65;1.85;;;;;;;;;;5039202;28;20037;-81
2022/05/22 08:24:50;;;;;;;6.60;1.63;;;;;;;;;;5029654;28;20049;-80
2022/05/22 08:27:17;;;;;;;7.53;2.10;;;;;;;;;;5022481;28;20036;-80
2022/05/22 08:29:43;;;;;;;10.10;1.77;;;;;;;;;;5027530;28;20033;-80
2022/05/22 08:32:08;;;;;;;7.85;2.30;;;;;;;;;;5048042;28;20457;-80
2022/05/22 08:34:34;;;;;;;13.27;2.20;;;;;;;;;;5067632;28;20048;-79
2022/05/22 08:37:00;;;;;;;9.30;1.80;;;;;;;;;;5057933;28;20033;-80
2022/05/22 08:39:25;;;;;;;7.53;2.20;;;;;;;;;;5036950;28;20028;-80
2022/05/22 08:41:53;;;;;;;9.25;2.28;;;;;;;;;;5021525;28;20455;-80
2022/05/22 08:44:20;;;;;;;5.35;1.33;;;;;;;;;;5023972;28;20029;-79
2022/05/22 08:47:01;;;;;;;9.60;2.05;;;;;;;;;;5071596;28;20025;-78
2022/05/22 08:49:32;;;;;;;10.75;2.03;;;;;;;;;;5037895;28;20021;-79
2022/05/22 08:52:17;;;;;;;8.32;1.85;;;;;;;;;;5032035;28;20040;-80
2022/05/22 08:54:50;;;;;;;8.85;1.75;;;;;;;;;;5058917;28;20032;-79
2022/05/22 09:00:06;;;;;;;11.70;2.20;;;;;;;;;;5075576;28;20125;-79
2022/05/22 09:02:37;;;;;;;7.47;1.52;;;;;;;;;;5062017;28;20392;-80
2022/05/22 09:05:07;;;;;;;5.68;1.48;;;;;;;;;;5059443;28;20021;-79
2022/05/22 09:07:52;;;;;;;4.72;1.60;;;;;;;;;;5056384;28;20051;-81
2022/05/22 09:10:27;;;;;;;8.88;1.80;;;;;;;;;;5074107;28;20089;-80
2022/05/22 09:13:05;;;;;;;8.13;1.98;;;;;;;;;;5073787;28;20554;-80
2022/05/22 09:15:47;;;;;;;6.68;1.45;;;;;;;;;;5040705;28;20028;-81
2022/05/22 09:18:17;;;;;;;6.70;1.98;;;;;;;;;;5063434;28;20051;-80
2022/05/22 09:20:46;;;;;;;5.60;1.90;;;;;;;;;;5068090;28;20037;-80
2022/05/22 09:23:25;;;;;;;6.70;1.70;;;;;;;;;;5057325;28;20035;-79
2022/05/22 09:26:00;;;;;;;6.68;2.38;;;;;;;;;;5049042;28;20039;-81
2022/05/22 09:28:31;;;;;;;6.70;1.70;;;;;;;;;;5036192;28;20064;-78
2022/05/22 09:43:06;;;;;;;6.32;1.77;;;;;;;;;;5065925;28;20570;-81
2022/05/22 09:57:25;;;;;;;4.90;1.40;;;;;;;;;;5076394;22;20047;-81
2022/05/22 10:00:13;;;;;;;7.85;1.75;;;;;;;;;;5128677;22;20492;-80
2022/05/22 10:02:48;;;;;;;6.68;1.50;;;;;;;;;;5105291;22;20123;-81
2022/05/22 10:05:41;;;;;;;8.20;1.58;;;;;;;;;;6019037;22;20885;-76
2022/05/22 10:08:26;;;;;;;6.68;1.80;;;;;;;;;;5049219;28;20198;-76
2022/05/22 10:11:05;;;;;;;7.65;1.50;;;;;;;;;;5072510;28;20044;-75
2022/05/22 10:13:39;;;;;;;6.00;1.38;;;;;;;;;;5054578;28;20032;-76
2022/05/22 10:16:32;;;;;;;11.77;2.20;;;;;;;;;;5054682;28;20497;-77
2022/05/22 10:19:08;;;;;;;4.63;1.20;;;;;;;;;;5072326;28;20029;-76
2022/05/22 10:21:39;;;;;;;5.03;1.38;;;;;;;;;;5102539;22;20126;-80
2022/05/22 10:24:24;;;;;;;5.05;1.35;;;;;;;;;;5113985;28;20028;-79
2022/05/22 10:27:03;;;;;;;7.13;1.38;;;;;;;;;;5079833;28;20028;-81
2022/05/22 10:29:36;;;;;;;5.45;1.40;;;;;;;;;;5077693;28;20028;-82
2022/05/22 10:32:05;;;;;;;9.82;1.52;;;;;;;;;;5098437;28;20028;-80
2022/05/22 10:34:34;;;;;;;7.05;1.70;;;;;;;;;;5071503;28;20448;-81
2022/05/22 10:37:03;;;;;;;6.20;1.35;;;;;;;;;;5070821;28;20032;-80
2022/05/22 10:39:28;;;;;;;;;;;;;;;;;;5071733;28;20033;-80
2022/05/22 10:44:46;;;;;;;3.60;1.08;;;;;;;;;;5074976;28;20039;-80
2022/05/22 10:47:12;;;;;;;1.95;1.02;;;;;;;;;;5113913;22;20117;-80
2022/05/22 10:49:42;;;;;;;7.20;1.42;;;;;;;;;;5094739;28;20081;-80
2022/05/22 10:52:10;;;;;;;5.13;1.33;;;;;;;;;;5078892;28;20028;-78
2022/05/22 10:54:46;;;;;;;7.20;1.63;;;;;;;;;;5074041;28;20031;-80
2022/05/22 10:57:17;;;;;;;7.80;1.73;;;;;;;;;;5055880;28;20119;-79
2022/05/22 10:59:43;;;;;;;6.32;1.42;;;;;;;;;;5040911;28;20029;-79
2022/05/22 11:02:21;;;;;;;7.15;1.73;;;;;;;;;;5023538;28;20033;-80
2022/05/22 11:04:48;;;;;;;4.53;1.65;;;;;;;;;;5073628;28;20025;-79
2022/05/22 11:07:25;;;;;;;6.20;1.55;;;;;;;;;;5073671;28;20021;-80
2022/05/22 11:09:51;;;;;;;4.63;1.50;;;;;;;;;;5073802;28;20098;-81
2022/05/22 11:12:21;;;;;;;10.57;1.65;;;;;;;;;;5073976;28;20032;-80
2022/05/22 11:14:47;;;;;;;5.13;1.30;;;;;;;;;;5040587;28;20033;-79
2022/05/22 11:17:17;;;;;;;8.15;1.60;;;;;;;;;;5074775;28;20506;-80
2022/05/22 11:19:47;;;;;;;6.05;1.67;;;;;;;;;;5039987;28;20028;-79
2022/05/22 11:22:18;;;;;;;6.35;1.40;;;;;;;;;;5073411;28;20170;-80
2022/05/22 11:24:47;;;;;;;3.88;1.65;;;;;;;;;;5074806;28;20103;-79
2022/05/22 11:27:12;;;;;;;;;;;;;;;;;;5075759;28;20029;-80
2022/05/22 11:29:53;;;;;;;3.20;1.10;;;;;;;;;;5041278;28;19908;-80
2022/05/22 11:32:38;;;;;;;5.15;1.33;;;;;;;;;;5074847;28;20033;-81
2022/05/22 11:35:23;;;;;;;7.03;1.75;;;;;;;;;;5040579;28;20061;-80
2022/05/22 11:37:55;;;;;;;2.75;1.20;;;;;;;;;;5057655;28;20039;-80
2022/05/22 11:40:39;;;;;;;9.68;1.58;;;;;;;;;;5075207;28;20036;-81
2022/05/22 11:43:05;;;;;;;5.13;1.40;;;;;;;;;;5024878;28;20123;-81
2022/05/22 11:46:03;;;;;;;5.88;1.70;;;;;;;;;;5043611;28;20027;-79
2022/05/22 11:48:41;;;;;;;5.10;1.48;;;;;;;;;;5008697;28;20048;-81
2022/05/22 11:51:27;;;;;;;8.60;1.70;;;;;;;;;;5042112;28;20423;-82
2022/05/22 11:54:12;;;;;;;10.15;1.85;;;;;;;;;;5045852;28;20104;-82
2022/05/22 11:56:58;;;;;;;7.13;2.28;;;;;;;;;;5044490;28;20066;-82
2022/05/22 11:59:46;;;;;;;5.30;1.50;;;;;;;;;;5079798;28;20028;-79
2022/05/22 12:02:16;;;;;;;7.97;1.75;;;;;;;;;;5078757;28;20086;-81
2022/05/22 12:04:50;;;;;;;6.38;1.83;;;;;;;;;;5078675;28;20021;-80
2022/05/22 12:07:19;;;;;;;6.13;1.58;;;;;;;;;;5077662;28;20120;-81
2022/05/22 12:09:59;;;;;;;8.25;2.92;;;;;;;;;;5044333;28;20044;-80
2022/05/22 12:12:35;;;;;;;5.72;1.20;;;;;;;;;;5078515;28;20094;-82
2022/05/22 12:15:01;;;;;;;4.15;1.40;;;;;;;;;;5059526;28;20036;-78
2022/05/22 12:17:39;;;;;;;6.57;1.85;;;;;;;;;;5075750;28;20024;-79
2022/05/22 12:20:21;;;;;;;5.32;1.65;;;;;;;;;;5057453;28;20064;-81
2022/05/22 12:23:13;;;;;;;6.50;1.73;;;;;;;;;;5041573;28;20036;-79
2022/05/22 12:25:42;;;;;;;7.20;3.22;;;;;;;;;;5066987;28;20041;-80
2022/05/22 12:28:19;;;;;;;6.00;1.73;;;;;;;;;;5058198;28;20027;-79
2022/05/22 12:30:45;;;;;;;12.73;2.20;;;;;;;;;;5041371;28;20497;-79
2022/05/22 12:33:11;;;;;;;5.85;1.65;;;;;;;;;;5075266;28;20265;-80
2022/05/22 12:35:40;;;;;;;6.00;1.50;;;;;;;;;;5024487;28;20033;-80
2022/05/22 12:38:31;;;;;;;8.93;1.60;;;;;;;;;;5057342;28;20146;-80
2022/05/22 12:41:14;;;;;;;7.40;1.60;;;;;;;;;;5057095;28;20028;-79
2022/05/22 12:43:40;;;;;;;8.98;1.80;;;;;;;;;;5040940;28;20078;-80
2022/05/22 12:46:08;;;;;;;6.55;1.50;;;;;;;;;;5056789;28;20810;-80
2022/05/22 12:48:37;;;;;;;6.80;1.35;;;;;;;;;;5056530;28;20032;-80
2022/05/22 12:51:09;;;;;;;4.40;1.25;;;;;;;;;;5056184;28;20616;-79
2022/05/22 12:53:36;;;;;;;5.45;1.35;;;;;;;;;;5057854;28;20045;-80
2022/05/22 12:56:21;;;;;;;4.00;1.20;;;;;;;;;;5074656;28;20086;-79
2022/05/22 12:58:57;;;;;;;7.75;1.60;;;;;;;;;;5058904;28;20036;-79
2022/05/22 13:01:37;;;;;;;5.50;1.70;;;;;;;;;;5057607;28;20059;-78
2022/05/22 13:04:15;;;;;;;6.22;1.50;;;;;;;;;;5085296;28;20105;-79
2022/05/22 13:06:53;;;;;;;6.95;1.65;;;;;;;;;;5076531;28;20025;-79
2022/05/22 13:09:21;;;;;;;7.68;1.48;;;;;;;;;;5075628;28;20552;-78
2022/05/22 13:11:52;;;;;;;5.57;1.50;;;;;;;;;;5041965;28;20085;-80
2022/05/22 13:14:29;;;;;;;7.65;1.52;;;;;;;;;;5058775;28;20029;-79
2022/05/22 13:16:55;;;;;;;7.90;1.55;;;;;;;;;;5076135;28;20031;-79
2022/05/22 13:19:24;;;;;;;7.82;2.25;;;;;;;;;;5057602;28;20024;-78
2022/05/22 13:21:52;;;;;;;5.13;1.48;;;;;;;;;;5075475;28;20052;-78
2022/05/22 13:24:17;;;;;;;4.70;1.23;;;;;;;;;;5075946;28;20024;-78
2022/05/22 13:27:00;;;;;;;6.43;1.30;;;;;;;;;;5058444;28;20048;-80
2022/05/22 13:29:28;;;;;;;9.88;1.90;;;;;;;;;;5058019;28;20028;-80
2022/05/22 13:31:58;;;;;;;4.65;1.40;;;;;;;;;;5076297;28;20028;-79
2022/05/22 13:34:28;;;;;;;5.35;1.40;;;;;;;;;;5077693;28;20089;-80
2022/05/22 13:36:56;;;;;;;4.95;1.50;;;;;;;;;;5077707;28;20055;-80
2022/05/22 13:39:31;;;;;;;5.38;1.77;;;;;;;;;;5077933;28;20025;-79
2022/05/22 13:41:56;;;;;;;5.15;1.55;;;;;;;;;;5059085;28;20033;-79
2022/05/22 13:44:41;;;;;;;6.85;1.40;;;;;;;;;;5075480;28;20028;-78
2022/05/22 13:47:06;;;;;;;3.95;1.48;;;;;;;;;;5074906;28;20036;-79
2022/05/22 13:49:46;;;;;;;5.57;1.27;;;;;;;;;;5056870;28;20024;-78
2022/05/22 13:52:37;;;;;;;4.88;1.40;;;;;;;;;;5054822;28;20035;-80
2022/05/22 13:55:05;;;;;;;5.97;1.80;;;;;;;;;;5073383;28;20028;-80
2022/05/22 13:57:33;;;;;;;6.65;1.50;;;;;;;;;;5055386;28;20024;-80
2022/05/22 14:00:14;;;;;;;5.13;1.20;;;;;;;;;;5055011;28;20100;-81
2022/05/22 14:02:48;;;;;;;5.38;1.15;;;;;;;;;;5073116;28;20032;-81
2022/05/22 14:05:15;;;;;;;5.32;1.23;;;;;;;;;;5072900;28;20474;-81
2022/05/22 14:07:51;;;;;;;4.85;1.27;;;;;;;;;;5054418;28;20483;-80
2022/05/22 14:10:32;;;;;;;4.60;1.20;;;;;;;;;;5038264;28;20157;-81
2022/05/22 14:13:00;;;;;;;4.53;1.50;;;;;;;;;;5046958;28;20063;-80
2022/05/22 14:15:27;;;;;;;7.35;1.60;;;;;;;;;;5053032;28;20070;-81
2022/05/22 14:17:53;;;;;;;5.05;1.52;;;;;;;;;;5088336;28;20032;-82
2022/05/22 14:20:24;;;;;;;6.05;1.73;;;;;;;;;;5090189;28;20028;-80
2022/05/22 14:22:51;;;;;;;5.45;1.50;;;;;;;;;;5068340;28;20036;-80
2022/05/22 14:25:21;;;;;;;5.65;1.17;;;;;;;;;;5060828;28;20028;-81
2022/05/22 14:27:48;;;;;;;6.70;1.70;;;;;;;;;;5083559;28;20029;-80
2022/05/22 14:30:17;;;;;;;5.20;1.83;;;;;;;;;;5083502;28;20556;-80
2022/05/22 14:32:48;;;;;;;4.93;1.52;;;;;;;;;;5038539;28;20032;-80
2022/05/22 14:35:18;;;;;;;3.85;1.30;;;;;;;;;;5056384;28;20085;-82
2022/05/22 14:37:49;;;;;;;3.85;1.55;;;;;;;;;;5058863;28;20037;-80
2022/05/22 14:40:17;;;;;;;7.13;1.77;;;;;;;;;;5050041;28;20058;-81
2022/05/22 14:42:45;;;;;;;3.83;1.20;;;;;;;;;;5051435;28;20226;-81
2022/05/22 14:45:19;;;;;;;4.78;1.83;;;;;;;;;;5085873;28;20016;-80
2022/05/22 14:47:48;;;;;;;6.53;1.60;;;;;;;;;;5050925;28;20564;-81
2022/05/22 14:50:15;;;;;;;5.57;1.35;;;;;;;;;;5065370;28;20269;-80
2022/05/22 14:52:42;;;;;;;10.70;2.20;;;;;;;;;;5079901;28;20078;-80
2022/05/22 14:55:17;;;;;;;4.50;1.55;;;;;;;;;;5133966;22;20110;-81
2022/05/22 14:57:45;;;;;;;7.18;1.63;;;;;;;;;;5100050;28;20114;-81
2022/05/22 15:00:14;;;;;;;6.68;1.48;;;;;;;;;;5099186;28;20505;-82
2022/05/22 15:02:55;;;;;;;5.00;1.75;;;;;;;;;;5062782;28;20096;-82
2022/05/22 15:05:22;;;;;;;6.05;1.50;;;;;;;;;;5077239;28;20105;-82
2022/05/22 15:07:52;;;;;;;3.50;1.30;;;;;;;;;;5076629;28;20060;-82
2022/05/22 15:10:29;;;;;;;5.57;1.50;;;;;;;;;;5077576;28;20099;-81
2022/05/22 15:12:55;;;;;;;6.68;2.83;;;;;;;;;;5077983;28;20088;-82
2022/05/22 15:15:28;;;;;;;6.38;1.70;;;;;;;;;;5078221;28;20082;-81
2022/05/22 15:18:04;;;;;;;4.20;1.20;;;;;;;;;;5075538;28;20123;-83
2022/05/22 15:20:33;;;;;;;4.57;1.63;;;;;;;;;;5076429;28;20042;-83
2022/05/22 15:26:00;;;;;;;5.22;1.67;;;;;;;;;;5063143;28;20029;-84
2022/05/22 15:28:27;;;;;;;7.53;1.77;;;;;;;;;;5081979;28;20024;-84
2022/05/22 15:30:59;;;;;;;7.38;2.40;;;;;;;;;;5081475;28;20051;-83
2022/05/22 15:33:43;;;;;;;7.78;2.38;;;;;;;;;;5075223;28;20153;-82
2022/05/22 15:36:18;;;;;;;5.80;2.13;;;;;;;;;;5082521;28;20035;-81
2022/05/22 15:38:56;;;;;;;7.97;1.80;;;;;;;;;;5078402;28;20261;-81
2022/05/22 15:41:25;;;;;;;6.55;1.67;;;;;;;;;;5075266;28;20374;-82
2022/05/22 15:43:52;;;;;;;4.80;1.50;;;;;;;;;;5057560;28;20043;-81
2022/05/22 15:46:23;;;;;;;4.75;1.50;;;;;;;;;;5075136;28;20017;-81
2022/05/22 15:51:40;;;;;;;7.32;1.33;;;;;;;;;;5062251;28;20028;-82
2022/05/22 15:54:06;;;;;;;8.35;1.88;;;;;;;;;;5043541;28;20044;-81
2022/05/22 15:56:33;;;;;;;5.00;1.85;;;;;;;;;;5080098;28;20040;-81
2022/05/22 15:58:59;;;;;;;8.00;1.92;;;;;;;;;;5057386;28;20025;-82
2022/05/22 16:01:24;;;;;;;6.35;1.90;;;;;;;;;;5057658;28;20034;-79